Linden Pride — H3VP — position and weather

sailwx.info

Track history (hours):
 
Tides and Currents Weather Stations Pressure Air Temp Water Temp Dewpoint Dewpoint Depression Visibility Wind Speed Wind Dir Waves Ship Positions

Linden Pride

Last reported at 2016-Aug-05 16:12 UTC. Time now 2016-Aug-25 18:29 UTC.
Position N 01°57' E 102°15'.
Warning: this ship's position is 20 days out of date.

Length 230 m; beam 36.6 m.

Type: Ship. MMSI: 356677000.

Date/timePositionNaut miles runAvg speedWind from/ knotsBaromVisibWave heightAir tempDewpointWater temp
2016-Aug-05 16:12N 01°57' E 102°15'1014.8
2016-Aug-05 15:34N 01°53' E 102°23'1514.3
2016-Aug-05 14:30N 01°47' E 102°37'6916.6
2016-Aug-05 10:20N 01°11' E 103°37'6 0.4
2016-Aug-04 19:21N 01°10' E 103°42'0 0.1
2016-Aug-04 18:29N 01°10' E 103°42'3 3.6
2016-Aug-04 17:33N 01°10' E 103°45'3 2.9
2016-Aug-04 16:33N 01°11' E 103°48'9 8.6
2016-Aug-04 15:33N 01°14' E 103°56'10 9.4
2016-Aug-04 14:31N 01°16' E 104°06'  
Track history (hours):
 
Tides and Currents Weather Stations Pressure Air Temp Water Temp Dewpoint Dewpoint Depression Visibility Wind Speed Wind Dir Waves Ship Positions

Linden Pride

Last reported at 2016-Aug-05 16:12 UTC. Time now 2016-Aug-25 18:29 UTC.
Position N 01°57' E 102°15'.
Warning: this ship's position is 20 days out of date.

Length 230 m; beam 36.6 m.

Type: Ship. MMSI: 356677000.

Date/timePositionNaut miles runAvg speedWind from/ knotsBaromVisibWave heightAir tempDewpointWater temp
2016-Aug-05 16:12N 01°57' E 102°15'1014.8
2016-Aug-05 15:34N 01°53' E 102°23'1514.3
2016-Aug-05 14:30N 01°47' E 102°37'6916.6
2016-Aug-05 10:20N 01°11' E 103°37'6 0.4
2016-Aug-04 19:21N 01°10' E 103°42'0 0.1
2016-Aug-04 18:29N 01°10' E 103°42'3 3.6
2016-Aug-04 17:33N 01°10' E 103°45'3 2.9
2016-Aug-04 16:33N 01°11' E 103°48'9 8.6
2016-Aug-04 15:33N 01°14' E 103°56'10 9.4
2016-Aug-04 14:31N 01°16' E 104°06'  

Dump ship's entire track history